sensor_id;sensor_type;location;lat;lon;timestamp;P1;durP1;ratioP1;P2;durP2;ratioP2
61677;SDS011;47575;52.054;4.334;2022-09-23T00:00:36;10.87;;;6.07;;
61677;SDS011;47575;52.054;4.334;2022-09-23T00:03:03;10.13;;;6.00;;
61677;SDS011;47575;52.054;4.334;2022-09-23T00:05:31;9.30;;;5.73;;
61677;SDS011;47575;52.054;4.334;2022-09-23T00:07:58;11.27;;;6.00;;
61677;SDS011;47575;52.054;4.334;2022-09-23T00:10:28;8.50;;;5.90;;
61677;SDS011;47575;52.054;4.334;2022-09-23T00:12:56;13.30;;;5.77;;
61677;SDS011;47575;52.054;4.334;2022-09-23T00:15:24;11.20;;;6.20;;
61677;SDS011;47575;52.054;4.334;2022-09-23T00:17:54;10.03;;;6.03;;
61677;SDS011;47575;52.054;4.334;2022-09-23T00:20:22;9.20;;;5.70;;
61677;SDS011;47575;52.054;4.334;2022-09-23T00:22:50;11.10;;;6.10;;
61677;SDS011;47575;52.054;4.334;2022-09-23T00:25:18;12.10;;;6.60;;
61677;SDS011;47575;52.054;4.334;2022-09-23T00:27:47;10.37;;;6.10;;
61677;SDS011;47575;52.054;4.334;2022-09-23T00:30:14;14.37;;;6.23;;
61677;SDS011;47575;52.054;4.334;2022-09-23T00:32:43;12.83;;;6.40;;
61677;SDS011;47575;52.054;4.334;2022-09-23T00:35:10;9.43;;;6.07;;
61677;SDS011;47575;52.054;4.334;2022-09-23T00:37:37;8.80;;;5.80;;
61677;SDS011;47575;52.054;4.334;2022-09-23T00:40:05;12.40;;;6.27;;
61677;SDS011;47575;52.054;4.334;2022-09-23T00:42:33;8.07;;;5.93;;
61677;SDS011;47575;52.054;4.334;2022-09-23T00:45:02;10.80;;;6.20;;
61677;SDS011;47575;52.054;4.334;2022-09-23T00:47:33;12.68;;;6.53;;
61677;SDS011;47575;52.054;4.334;2022-09-23T00:50:05;12.80;;;5.80;;
61677;SDS011;47575;52.054;4.334;2022-09-23T00:52:38;16.50;;;6.30;;
61677;SDS011;47575;52.054;4.334;2022-09-23T00:55:07;20.37;;;6.67;;
61677;SDS011;47575;52.054;4.334;2022-09-23T00:57:38;12.10;;;6.30;;
61677;SDS011;47575;52.054;4.334;2022-09-23T01:00:09;14.13;;;6.07;;
61677;SDS011;47575;52.054;4.334;2022-09-23T01:02:37;10.07;;;6.10;;
61677;SDS011;47575;52.054;4.334;2022-09-23T01:05:06;10.13;;;5.83;;
61677;SDS011;47575;52.054;4.334;2022-09-23T01:07:33;13.53;;;6.20;;
61677;SDS011;47575;52.054;4.334;2022-09-23T01:10:01;10.70;;;5.80;;
61677;SDS011;47575;52.054;4.334;2022-09-23T01:12:33;13.70;;;6.00;;
61677;SDS011;47575;52.054;4.334;2022-09-23T01:15:16;10.43;;;6.20;;
61677;SDS011;47575;52.054;4.334;2022-09-23T01:17:48;10.40;;;6.20;;
61677;SDS011;47575;52.054;4.334;2022-09-23T01:20:28;10.80;;;6.63;;
61677;SDS011;47575;52.054;4.334;2022-09-23T01:23:12;9.80;;;6.40;;
61677;SDS011;47575;52.054;4.334;2022-09-23T01:25:59;10.53;;;6.80;;
61677;SDS011;47575;52.054;4.334;2022-09-23T01:28:38;12.20;;;6.77;;
61677;SDS011;47575;52.054;4.334;2022-09-23T01:31:26;12.77;;;7.00;;
61677;SDS011;47575;52.054;4.334;2022-09-23T01:34:02;21.53;;;7.03;;
61677;SDS011;47575;52.054;4.334;2022-09-23T01:36:36;10.53;;;7.40;;
61677;SDS011;47575;52.054;4.334;2022-09-23T01:39:08;14.85;;;7.30;;
61677;SDS011;47575;52.054;4.334;2022-09-23T01:41:47;9.10;;;6.90;;
61677;SDS011;47575;52.054;4.334;2022-09-23T01:44:21;10.60;;;7.07;;
61677;SDS011;47575;52.054;4.334;2022-09-23T01:46:57;13.87;;;8.17;;
61677;SDS011;47575;52.054;4.334;2022-09-23T01:49:29;11.13;;;7.40;;
61677;SDS011;47575;52.054;4.334;2022-09-23T01:52:06;11.70;;;7.53;;
61677;SDS011;47575;52.054;4.334;2022-09-23T01:54:41;10.30;;;7.63;;
61677;SDS011;47575;52.054;4.334;2022-09-23T01:57:15;14.43;;;7.63;;
61677;SDS011;47575;52.054;4.334;2022-09-23T01:59:48;10.87;;;7.53;;
61677;SDS011;47575;52.054;4.334;2022-09-23T02:02:21;11.07;;;7.47;;
61677;SDS011;47575;52.054;4.334;2022-09-23T02:04:54;11.17;;;7.00;;
61677;SDS011;47575;52.054;4.334;2022-09-23T02:09:58;12.47;;;8.07;;
61677;SDS011;47575;52.054;4.334;2022-09-23T02:12:31;12.17;;;8.30;;
61677;SDS011;47575;52.054;4.334;2022-09-23T02:15:03;11.47;;;7.97;;
61677;SDS011;47575;52.054;4.334;2022-09-23T02:17:39;13.37;;;7.60;;
61677;SDS011;47575;52.054;4.334;2022-09-23T02:20:11;12.03;;;8.10;;
61677;SDS011;47575;52.054;4.334;2022-09-23T02:22:41;13.50;;;7.70;;
61677;SDS011;47575;52.054;4.334;2022-09-23T02:25:19;19.67;;;7.73;;
61677;SDS011;47575;52.054;4.334;2022-09-23T02:27:51;14.87;;;7.63;;
61677;SDS011;47575;52.054;4.334;2022-09-23T02:30:25;14.13;;;7.87;;
61677;SDS011;47575;52.054;4.334;2022-09-23T02:32:58;11.87;;;8.07;;
61677;SDS011;47575;52.054;4.334;2022-09-23T02:35:32;10.73;;;7.40;;
61677;SDS011;47575;52.054;4.334;2022-09-23T02:38:05;11.83;;;7.80;;
61677;SDS011;47575;52.054;4.334;2022-09-23T02:40:45;12.23;;;7.70;;
61677;SDS011;47575;52.054;4.334;2022-09-23T02:43:19;10.43;;;7.70;;
61677;SDS011;47575;52.054;4.334;2022-09-23T02:45:56;11.50;;;7.60;;
61677;SDS011;47575;52.054;4.334;2022-09-23T02:48:26;10.40;;;7.53;;
61677;SDS011;47575;52.054;4.334;2022-09-23T02:50:59;10.83;;;7.80;;
61677;SDS011;47575;52.054;4.334;2022-09-23T02:53:28;12.17;;;7.47;;
61677;SDS011;47575;52.054;4.334;2022-09-23T02:55:58;12.23;;;7.43;;
61677;SDS011;47575;52.054;4.334;2022-09-23T02:58:26;11.27;;;7.10;;
61677;SDS011;47575;52.054;4.334;2022-09-23T03:01:06;11.93;;;7.30;;
61677;SDS011;47575;52.054;4.334;2022-09-23T03:03:45;11.47;;;7.50;;
61677;SDS011;47575;52.054;4.334;2022-09-23T03:06:23;9.43;;;7.47;;
61677;SDS011;47575;52.054;4.334;2022-09-23T03:08:57;14.07;;;7.70;;
61677;SDS011;47575;52.054;4.334;2022-09-23T03:11:27;11.57;;;7.07;;
61677;SDS011;47575;52.054;4.334;2022-09-23T03:14:00;11.07;;;7.37;;
61677;SDS011;47575;52.054;4.334;2022-09-23T03:16:42;12.00;;;7.33;;
61677;SDS011;47575;52.054;4.334;2022-09-23T03:19:19;10.75;;;7.57;;
61677;SDS011;47575;52.054;4.334;2022-09-23T03:21:55;10.43;;;7.60;;
61677;SDS011;47575;52.054;4.334;2022-09-23T03:24:26;11.60;;;7.60;;
61677;SDS011;47575;52.054;4.334;2022-09-23T03:26:57;12.77;;;7.83;;
61677;SDS011;47575;52.054;4.334;2022-09-23T03:29:27;11.43;;;7.07;;
61677;SDS011;47575;52.054;4.334;2022-09-23T03:31:56;12.17;;;8.00;;
61677;SDS011;47575;52.054;4.334;2022-09-23T03:34:27;14.47;;;7.97;;
61677;SDS011;47575;52.054;4.334;2022-09-23T03:36:59;9.80;;;7.72;;
61677;SDS011;47575;52.054;4.334;2022-09-23T03:39:34;10.73;;;7.63;;
61677;SDS011;47575;52.054;4.334;2022-09-23T03:44:41;10.83;;;7.93;;
61677;SDS011;47575;52.054;4.334;2022-09-23T03:47:10;11.33;;;7.97;;
61677;SDS011;47575;52.054;4.334;2022-09-23T03:49:41;10.30;;;8.00;;
61677;SDS011;47575;52.054;4.334;2022-09-23T03:52:13;11.63;;;7.83;;
61677;SDS011;47575;52.054;4.334;2022-09-23T03:54:40;11.43;;;8.30;;
61677;SDS011;47575;52.054;4.334;2022-09-23T03:57:08;11.67;;;7.90;;
61677;SDS011;47575;52.054;4.334;2022-09-23T03:59:36;13.07;;;8.27;;
61677;SDS011;47575;52.054;4.334;2022-09-23T04:02:04;12.97;;;8.27;;
61677;SDS011;47575;52.054;4.334;2022-09-23T04:04:33;11.50;;;8.00;;
61677;SDS011;47575;52.054;4.334;2022-09-23T04:07:03;11.33;;;8.73;;
61677;SDS011;47575;52.054;4.334;2022-09-23T04:09:31;16.20;;;8.33;;
61677;SDS011;47575;52.054;4.334;2022-09-23T04:11:58;15.77;;;8.50;;
61677;SDS011;47575;52.054;4.334;2022-09-23T04:14:25;11.43;;;8.17;;
61677;SDS011;47575;52.054;4.334;2022-09-23T04:16:53;13.87;;;8.50;;
61677;SDS011;47575;52.054;4.334;2022-09-23T04:19:20;17.77;;;9.37;;
61677;SDS011;47575;52.054;4.334;2022-09-23T04:21:48;14.07;;;8.67;;
61677;SDS011;47575;52.054;4.334;2022-09-23T04:24:17;11.47;;;8.27;;
61677;SDS011;47575;52.054;4.334;2022-09-23T04:26:44;12.03;;;8.30;;
61677;SDS011;47575;52.054;4.334;2022-09-23T04:29:11;13.80;;;8.10;;
61677;SDS011;47575;52.054;4.334;2022-09-23T04:31:38;10.83;;;8.23;;
61677;SDS011;47575;52.054;4.334;2022-09-23T04:34:06;10.60;;;8.23;;
61677;SDS011;47575;52.054;4.334;2022-09-23T04:36:33;12.47;;;8.10;;
61677;SDS011;47575;52.054;4.334;2022-09-23T04:39:00;13.03;;;8.20;;
61677;SDS011;47575;52.054;4.334;2022-09-23T04:41:29;14.77;;;8.50;;
61677;SDS011;47575;52.054;4.334;2022-09-23T04:43:57;13.33;;;8.00;;
61677;SDS011;47575;52.054;4.334;2022-09-23T04:46:24;12.83;;;8.13;;
61677;SDS011;47575;52.054;4.334;2022-09-23T04:48:51;13.53;;;8.10;;
61677;SDS011;47575;52.054;4.334;2022-09-23T04:51:20;12.83;;;8.40;;
61677;SDS011;47575;52.054;4.334;2022-09-23T04:53:48;13.73;;;8.63;;
61677;SDS011;47575;52.054;4.334;2022-09-23T04:56:18;13.53;;;8.07;;
61677;SDS011;47575;52.054;4.334;2022-09-23T04:58:48;11.00;;;8.30;;
61677;SDS011;47575;52.054;4.334;2022-09-23T05:01:17;14.30;;;9.40;;
61677;SDS011;47575;52.054;4.334;2022-09-23T05:03:49;14.48;;;9.40;;
61677;SDS011;47575;52.054;4.334;2022-09-23T05:06:17;15.90;;;9.80;;
61677;SDS011;47575;52.054;4.334;2022-09-23T05:08:46;15.33;;;9.40;;
61677;SDS011;47575;52.054;4.334;2022-09-23T05:11:14;16.27;;;10.07;;
61677;SDS011;47575;52.054;4.334;2022-09-23T05:13:43;14.20;;;9.97;;
61677;SDS011;47575;52.054;4.334;2022-09-23T05:16:12;14.07;;;9.07;;
61677;SDS011;47575;52.054;4.334;2022-09-23T05:18:40;16.50;;;8.93;;
61677;SDS011;47575;52.054;4.334;2022-09-23T05:21:09;13.93;;;9.00;;
61677;SDS011;47575;52.054;4.334;2022-09-23T05:23:37;14.77;;;10.17;;
61677;SDS011;47575;52.054;4.334;2022-09-23T05:26:07;18.87;;;10.40;;
61677;SDS011;47575;52.054;4.334;2022-09-23T05:28:36;15.00;;;9.80;;
61677;SDS011;47575;52.054;4.334;2022-09-23T05:31:04;17.10;;;9.60;;
61677;SDS011;47575;52.054;4.334;2022-09-23T05:33:34;13.53;;;9.27;;
61677;SDS011;47575;52.054;4.334;2022-09-23T05:36:02;15.50;;;9.60;;
61677;SDS011;47575;52.054;4.334;2022-09-23T05:38:31;15.70;;;9.87;;
61677;SDS011;47575;52.054;4.334;2022-09-23T05:40:59;17.03;;;9.97;;
61677;SDS011;47575;52.054;4.334;2022-09-23T05:43:28;15.57;;;9.83;;
61677;SDS011;47575;52.054;4.334;2022-09-23T05:45:59;18.13;;;10.03;;
61677;SDS011;47575;52.054;4.334;2022-09-23T05:48:28;15.40;;;11.98;;
61677;SDS011;47575;52.054;4.334;2022-09-23T05:50:57;18.83;;;10.20;;
61677;SDS011;47575;52.054;4.334;2022-09-23T05:53:25;15.93;;;10.57;;
61677;SDS011;47575;52.054;4.334;2022-09-23T05:55:54;15.40;;;10.43;;
61677;SDS011;47575;52.054;4.334;2022-09-23T05:58:21;13.80;;;10.47;;
61677;SDS011;47575;52.054;4.334;2022-09-23T06:00:49;15.53;;;10.50;;
61677;SDS011;47575;52.054;4.334;2022-09-23T06:03:18;16.00;;;10.43;;
61677;SDS011;47575;52.054;4.334;2022-09-23T06:05:46;16.97;;;10.33;;
61677;SDS011;47575;52.054;4.334;2022-09-23T06:08:15;18.30;;;10.83;;
61677;SDS011;47575;52.054;4.334;2022-09-23T06:10:43;15.13;;;11.23;;
61677;SDS011;47575;52.054;4.334;2022-09-23T06:13:12;16.60;;;11.53;;
61677;SDS011;47575;52.054;4.334;2022-09-23T06:15:40;16.13;;;11.00;;
61677;SDS011;47575;52.054;4.334;2022-09-23T06:18:09;19.20;;;10.93;;
61677;SDS011;47575;52.054;4.334;2022-09-23T06:20:37;15.30;;;11.03;;
61677;SDS011;47575;52.054;4.334;2022-09-23T06:23:05;15.90;;;11.27;;
61677;SDS011;47575;52.054;4.334;2022-09-23T06:25:35;16.90;;;11.03;;
61677;SDS011;47575;52.054;4.334;2022-09-23T06:28:04;17.50;;;12.20;;
61677;SDS011;47575;52.054;4.334;2022-09-23T06:30:37;17.90;;;11.87;;
61677;SDS011;47575;52.054;4.334;2022-09-23T06:33:05;17.67;;;12.17;;
61677;SDS011;47575;52.054;4.334;2022-09-23T06:35:33;16.03;;;11.33;;
61677;SDS011;47575;52.054;4.334;2022-09-23T06:38:01;16.30;;;12.23;;
61677;SDS011;47575;52.054;4.334;2022-09-23T06:40:29;18.33;;;12.37;;
61677;SDS011;47575;52.054;4.334;2022-09-23T06:42:58;17.77;;;11.83;;
61677;SDS011;47575;52.054;4.334;2022-09-23T06:45:27;16.33;;;11.73;;
61677;SDS011;47575;52.054;4.334;2022-09-23T06:47:54;15.33;;;11.60;;
61677;SDS011;47575;52.054;4.334;2022-09-23T06:50:23;17.13;;;12.03;;
61677;SDS011;47575;52.054;4.334;2022-09-23T06:52:51;16.93;;;12.17;;
61677;SDS011;47575;52.054;4.334;2022-09-23T06:55:21;17.80;;;11.70;;
61677;SDS011;47575;52.054;4.334;2022-09-23T06:57:50;18.55;;;12.15;;
61677;SDS011;47575;52.054;4.334;2022-09-23T07:00:18;17.73;;;12.20;;
61677;SDS011;47575;52.054;4.334;2022-09-23T07:02:46;16.50;;;11.20;;
61677;SDS011;47575;52.054;4.334;2022-09-23T07:05:13;18.27;;;11.53;;
61677;SDS011;47575;52.054;4.334;2022-09-23T07:07:42;18.27;;;11.85;;
61677;SDS011;47575;52.054;4.334;2022-09-23T07:10:10;16.80;;;11.38;;
61677;SDS011;47575;52.054;4.334;2022-09-23T07:12:37;18.23;;;12.20;;
61677;SDS011;47575;52.054;4.334;2022-09-23T07:15:05;20.77;;;12.32;;
61677;SDS011;47575;52.054;4.334;2022-09-23T07:17:35;18.90;;;11.93;;
61677;SDS011;47575;52.054;4.334;2022-09-23T07:20:03;18.50;;;11.82;;
61677;SDS011;47575;52.054;4.334;2022-09-23T07:22:31;19.23;;;12.07;;
61677;SDS011;47575;52.054;4.334;2022-09-23T07:24:58;17.83;;;12.02;;
61677;SDS011;47575;52.054;4.334;2022-09-23T07:27:26;16.63;;;12.23;;
61677;SDS011;47575;52.054;4.334;2022-09-23T07:29:54;16.73;;;11.77;;
61677;SDS011;47575;52.054;4.334;2022-09-23T07:32:21;19.35;;;12.05;;
61677;SDS011;47575;52.054;4.334;2022-09-23T07:34:51;19.10;;;12.50;;
61677;SDS011;47575;52.054;4.334;2022-09-23T07:37:18;18.52;;;11.75;;
61677;SDS011;47575;52.054;4.334;2022-09-23T07:39:46;18.40;;;13.60;;
61677;SDS011;47575;52.054;4.334;2022-09-23T07:42:13;17.92;;;11.95;;
61677;SDS011;47575;52.054;4.334;2022-09-23T07:44:40;21.40;;;11.85;;
61677;SDS011;47575;52.054;4.334;2022-09-23T07:47:10;17.33;;;11.88;;
61677;SDS011;47575;52.054;4.334;2022-09-23T07:49:37;17.30;;;11.95;;
61677;SDS011;47575;52.054;4.334;2022-09-23T07:52:06;20.70;;;12.23;;
61677;SDS011;47575;52.054;4.334;2022-09-23T07:54:34;16.75;;;11.77;;
61677;SDS011;47575;52.054;4.334;2022-09-23T07:57:02;18.00;;;11.85;;
61677;SDS011;47575;52.054;4.334;2022-09-23T07:59:29;19.15;;;11.88;;
61677;SDS011;47575;52.054;4.334;2022-09-23T08:01:56;19.45;;;12.20;;
61677;SDS011;47575;52.054;4.334;2022-09-23T08:04:24;18.00;;;12.35;;
61677;SDS011;47575;52.054;4.334;2022-09-23T08:06:55;17.73;;;11.80;;
61677;SDS011;47575;52.054;4.334;2022-09-23T08:09:26;20.30;;;11.95;;
61677;SDS011;47575;52.054;4.334;2022-09-23T08:11:56;18.10;;;11.25;;
61677;SDS011;47575;52.054;4.334;2022-09-23T08:14:24;25.92;;;12.60;;
61677;SDS011;47575;52.054;4.334;2022-09-23T08:16:53;17.77;;;11.35;;
61677;SDS011;47575;52.054;4.334;2022-09-23T08:19:21;14.75;;;10.63;;
61677;SDS011;47575;52.054;4.334;2022-09-23T08:21:48;18.25;;;11.80;;
61677;SDS011;47575;52.054;4.334;2022-09-23T08:24:17;17.02;;;11.43;;
61677;SDS011;47575;52.054;4.334;2022-09-23T08:26:47;16.75;;;11.93;;
61677;SDS011;47575;52.054;4.334;2022-09-23T08:29:18;18.55;;;12.15;;
61677;SDS011;47575;52.054;4.334;2022-09-23T08:31:46;17.50;;;11.13;;
61677;SDS011;47575;52.054;4.334;2022-09-23T08:34:15;14.88;;;10.05;;
61677;SDS011;47575;52.054;4.334;2022-09-23T08:36:43;19.38;;;10.60;;
61677;SDS011;47575;52.054;4.334;2022-09-23T08:39:12;17.10;;;10.65;;
61677;SDS011;47575;52.054;4.334;2022-09-23T08:41:42;14.10;;;10.73;;
61677;SDS011;47575;52.054;4.334;2022-09-23T08:44:16;14.45;;;10.60;;
61677;SDS011;47575;52.054;4.334;2022-09-23T08:46:50;16.55;;;9.77;;
61677;SDS011;47575;52.054;4.334;2022-09-23T08:49:24;15.80;;;10.68;;
61677;SDS011;47575;52.054;4.334;2022-09-23T08:51:57;13.88;;;9.25;;
61677;SDS011;47575;52.054;4.334;2022-09-23T08:54:31;16.00;;;9.95;;
61677;SDS011;47575;52.054;4.334;2022-09-23T08:57:00;14.05;;;10.48;;
61677;SDS011;47575;52.054;4.334;2022-09-23T08:59:33;14.48;;;9.55;;
61677;SDS011;47575;52.054;4.334;2022-09-23T09:02:08;14.98;;;10.02;;
61677;SDS011;47575;52.054;4.334;2022-09-23T09:04:41;15.88;;;9.65;;
61677;SDS011;47575;52.054;4.334;2022-09-23T09:07:11;15.88;;;9.30;;
61677;SDS011;47575;52.054;4.334;2022-09-23T09:09:44;13.70;;;9.40;;
61677;SDS011;47575;52.054;4.334;2022-09-23T09:12:17;14.52;;;9.60;;
61677;SDS011;47575;52.054;4.334;2022-09-23T09:14:50;13.65;;;9.30;;
61677;SDS011;47575;52.054;4.334;2022-09-23T09:17:26;16.13;;;9.35;;
61677;SDS011;47575;52.054;4.334;2022-09-23T09:20:00;14.57;;;9.02;;
61677;SDS011;47575;52.054;4.334;2022-09-23T09:22:40;12.85;;;8.73;;
61677;SDS011;47575;52.054;4.334;2022-09-23T09:25:16;11.60;;;8.40;;
61677;SDS011;47575;52.054;4.334;2022-09-23T09:27:50;17.73;;;9.15;;
61677;SDS011;47575;52.054;4.334;2022-09-23T09:30:21;12.40;;;8.73;;
61677;SDS011;47575;52.054;4.334;2022-09-23T09:32:51;12.07;;;8.48;;
61677;SDS011;47575;52.054;4.334;2022-09-23T09:35:28;12.40;;;8.57;;
61677;SDS011;47575;52.054;4.334;2022-09-23T09:38:02;14.32;;;8.85;;
61677;SDS011;47575;52.054;4.334;2022-09-23T09:40:30;13.15;;;8.27;;
61677;SDS011;47575;52.054;4.334;2022-09-23T09:42:59;13.57;;;8.45;;
61677;SDS011;47575;52.054;4.334;2022-09-23T09:45:35;11.70;;;8.10;;
61677;SDS011;47575;52.054;4.334;2022-09-23T09:48:19;11.00;;;8.48;;
61677;SDS011;47575;52.054;4.334;2022-09-23T09:50:52;11.40;;;7.57;;
61677;SDS011;47575;52.054;4.334;2022-09-23T09:53:21;12.32;;;8.00;;
61677;SDS011;47575;52.054;4.334;2022-09-23T09:56:00;13.82;;;8.13;;
61677;SDS011;47575;52.054;4.334;2022-09-23T09:58:31;13.18;;;8.32;;
61677;SDS011;47575;52.054;4.334;2022-09-23T10:01:17;13.15;;;8.40;;
61677;SDS011;47575;52.054;4.334;2022-09-23T10:03:45;12.57;;;8.15;;
61677;SDS011;47575;52.054;4.334;2022-09-23T10:06:14;13.35;;;8.15;;
61677;SDS011;47575;52.054;4.334;2022-09-23T10:08:46;12.27;;;7.80;;
61677;SDS011;47575;52.054;4.334;2022-09-23T10:11:17;13.20;;;7.80;;
61677;SDS011;47575;52.054;4.334;2022-09-23T10:13:59;15.82;;;8.10;;
61677;SDS011;47575;52.054;4.334;2022-09-23T10:16:31;13.80;;;8.65;;
61677;SDS011;47575;52.054;4.334;2022-09-23T10:19:00;12.15;;;7.93;;
61677;SDS011;47575;52.054;4.334;2022-09-23T10:21:32;11.85;;;8.38;;
61677;SDS011;47575;52.054;4.334;2022-09-23T10:24:03;13.00;;;8.18;;
61677;SDS011;47575;52.054;4.334;2022-09-23T10:26:32;12.73;;;8.15;;
61677;SDS011;47575;52.054;4.334;2022-09-23T10:29:18;12.50;;;7.63;;
61677;SDS011;47575;52.054;4.334;2022-09-23T10:31:50;13.40;;;7.97;;
61677;SDS011;47575;52.054;4.334;2022-09-23T10:34:46;12.20;;;7.57;;
61677;SDS011;47575;52.054;4.334;2022-09-23T10:37:17;11.65;;;7.35;;
61677;SDS011;47575;52.054;4.334;2022-09-23T10:42:39;10.75;;;7.70;;
61677;SDS011;47575;52.054;4.334;2022-09-23T10:45:39;12.68;;;7.90;;
61677;SDS011;47575;52.054;4.334;2022-09-23T10:48:35;13.32;;;8.43;;
61677;SDS011;47575;52.054;4.334;2022-09-23T10:51:13;13.63;;;7.45;;
61677;SDS011;47575;52.054;4.334;2022-09-23T10:53:47;12.45;;;8.25;;
61677;SDS011;47575;52.054;4.334;2022-09-23T10:56:29;13.52;;;8.00;;
61677;SDS011;47575;52.054;4.334;2022-09-23T11:01:58;12.20;;;7.72;;
61677;SDS011;47575;52.054;4.334;2022-09-23T11:07:37;13.80;;;8.20;;
61677;SDS011;47575;52.054;4.334;2022-09-23T11:10:23;11.50;;;7.60;;
61677;SDS011;47575;52.054;4.334;2022-09-23T11:13:06;13.55;;;7.95;;
61677;SDS011;47575;52.054;4.334;2022-09-23T11:15:47;10.50;;;7.47;;
61677;SDS011;47575;52.054;4.334;2022-09-23T11:18:33;14.65;;;7.45;;
61677;SDS011;47575;52.054;4.334;2022-09-23T11:21:28;12.30;;;8.00;;
61677;SDS011;47575;52.054;4.334;2022-09-23T11:24:34;11.57;;;7.88;;
61677;SDS011;47575;52.054;4.334;2022-09-23T11:27:17;15.93;;;6.95;;
61677;SDS011;47575;52.054;4.334;2022-09-23T11:30:00;11.18;;;7.15;;
61677;SDS011;47575;52.054;4.334;2022-09-23T11:32:52;13.75;;;7.07;;
61677;SDS011;47575;52.054;4.334;2022-09-23T11:35:40;10.95;;;6.57;;
61677;SDS011;47575;52.054;4.334;2022-09-23T11:38:13;12.00;;;7.05;;
61677;SDS011;47575;52.054;4.334;2022-09-23T11:40:54;11.13;;;6.47;;
61677;SDS011;47575;52.054;4.334;2022-09-23T11:43:26;9.30;;;5.80;;
61677;SDS011;47575;52.054;4.334;2022-09-23T11:45:59;11.75;;;6.15;;
61677;SDS011;47575;52.054;4.334;2022-09-23T11:48:35;10.82;;;5.85;;
61677;SDS011;47575;52.054;4.334;2022-09-23T11:51:08;10.57;;;5.72;;
61677;SDS011;47575;52.054;4.334;2022-09-23T11:53:41;9.50;;;5.40;;
61677;SDS011;47575;52.054;4.334;2022-09-23T11:56:15;10.93;;;5.30;;
61677;SDS011;47575;52.054;4.334;2022-09-23T11:58:53;9.82;;;5.40;;
61677;SDS011;47575;52.054;4.334;2022-09-23T12:01:27;10.93;;;5.72;;
61677;SDS011;47575;52.054;4.334;2022-09-23T12:04:02;8.85;;;5.47;;
61677;SDS011;47575;52.054;4.334;2022-09-23T12:09:03;7.40;;;4.80;;
61677;SDS011;47575;52.054;4.334;2022-09-23T12:11:44;9.80;;;5.03;;
61677;SDS011;47575;52.054;4.334;2022-09-23T12:14:19;9.48;;;4.93;;
61677;SDS011;47575;52.054;4.334;2022-09-23T12:20:00;10.40;;;5.32;;
61677;SDS011;47575;52.054;4.334;2022-09-23T12:22:50;7.93;;;5.18;;
61677;SDS011;47575;52.054;4.334;2022-09-23T12:25:30;10.23;;;5.82;;
61677;SDS011;47575;52.054;4.334;2022-09-23T12:28:05;12.43;;;5.30;;
61677;SDS011;47575;52.054;4.334;2022-09-23T12:30:39;10.75;;;5.00;;
61677;SDS011;47575;52.054;4.334;2022-09-23T12:33:08;11.75;;;5.45;;
61677;SDS011;47575;52.054;4.334;2022-09-23T12:35:42;9.93;;;6.30;;
61677;SDS011;47575;52.054;4.334;2022-09-23T12:38:12;9.63;;;5.65;;
61677;SDS011;47575;52.054;4.334;2022-09-23T12:40:44;9.57;;;5.78;;
61677;SDS011;47575;52.054;4.334;2022-09-23T12:43:17;8.70;;;5.35;;
61677;SDS011;47575;52.054;4.334;2022-09-23T12:45:45;9.00;;;4.53;;
61677;SDS011;47575;52.054;4.334;2022-09-23T12:51:25;10.43;;;5.00;;
61677;SDS011;47575;52.054;4.334;2022-09-23T12:53:57;9.93;;;5.03;;
61677;SDS011;47575;52.054;4.334;2022-09-23T12:56:58;8.27;;;6.00;;
61677;SDS011;47575;52.054;4.334;2022-09-23T12:59:29;9.27;;;6.18;;
61677;SDS011;47575;52.054;4.334;2022-09-23T13:02:09;13.38;;;6.57;;
61677;SDS011;47575;52.054;4.334;2022-09-23T13:04:53;11.60;;;6.03;;
61677;SDS011;47575;52.054;4.334;2022-09-23T13:07:41;11.15;;;6.97;;
61677;SDS011;47575;52.054;4.334;2022-09-23T13:10:14;9.20;;;6.40;;
61677;SDS011;47575;52.054;4.334;2022-09-23T13:12:44;11.73;;;6.72;;
61677;SDS011;47575;52.054;4.334;2022-09-23T13:15:15;9.77;;;6.40;;
61677;SDS011;47575;52.054;4.334;2022-09-23T13:17:49;13.30;;;6.30;;
61677;SDS011;47575;52.054;4.334;2022-09-23T13:20:32;10.90;;;6.10;;
61677;SDS011;47575;52.054;4.334;2022-09-23T13:23:04;9.63;;;6.50;;
61677;SDS011;47575;52.054;4.334;2022-09-23T13:25:49;10.63;;;6.60;;
61677;SDS011;47575;52.054;4.334;2022-09-23T13:28:26;9.05;;;6.35;;
61677;SDS011;47575;52.054;4.334;2022-09-23T13:30:57;10.80;;;6.43;;
61677;SDS011;47575;52.054;4.334;2022-09-23T13:33:29;9.40;;;6.47;;
61677;SDS011;47575;52.054;4.334;2022-09-23T13:36:07;10.38;;;6.30;;
61677;SDS011;47575;52.054;4.334;2022-09-23T13:38:37;10.90;;;6.10;;
61677;SDS011;47575;52.054;4.334;2022-09-23T13:41:06;10.65;;;5.85;;
61677;SDS011;47575;52.054;4.334;2022-09-23T13:43:39;9.60;;;5.70;;
61677;SDS011;47575;52.054;4.334;2022-09-23T13:46:11;7.97;;;5.15;;
61677;SDS011;47575;52.054;4.334;2022-09-23T13:48:42;8.50;;;5.55;;
61677;SDS011;47575;52.054;4.334;2022-09-23T13:51:13;9.30;;;5.75;;
61677;SDS011;47575;52.054;4.334;2022-09-23T13:53:50;10.60;;;6.65;;
61677;SDS011;47575;52.054;4.334;2022-09-23T13:56:22;10.10;;;7.18;;
61677;SDS011;47575;52.054;4.334;2022-09-23T13:58:51;10.10;;;7.28;;
61677;SDS011;47575;52.054;4.334;2022-09-23T14:01:23;11.43;;;7.40;;
61677;SDS011;47575;52.054;4.334;2022-09-23T14:03:56;13.68;;;7.72;;
61677;SDS011;47575;52.054;4.334;2022-09-23T14:06:24;12.38;;;7.60;;
61677;SDS011;47575;52.054;4.334;2022-09-23T14:08:52;12.65;;;8.00;;
61677;SDS011;47575;52.054;4.334;2022-09-23T14:11:21;13.52;;;7.80;;
61677;SDS011;47575;52.054;4.334;2022-09-23T14:13:55;10.90;;;8.10;;
61677;SDS011;47575;52.054;4.334;2022-09-23T14:16:24;10.10;;;7.85;;
61677;SDS011;47575;52.054;4.334;2022-09-23T14:18:54;14.52;;;7.97;;
61677;SDS011;47575;52.054;4.334;2022-09-23T14:21:25;12.65;;;8.13;;
61677;SDS011;47575;52.054;4.334;2022-09-23T14:23:54;11.57;;;8.98;;
61677;SDS011;47575;52.054;4.334;2022-09-23T14:26:22;13.50;;;9.63;;
61677;SDS011;47575;52.054;4.334;2022-09-23T14:28:50;12.55;;;10.00;;
61677;SDS011;47575;52.054;4.334;2022-09-23T14:31:18;15.15;;;9.15;;
61677;SDS011;47575;52.054;4.334;2022-09-23T14:33:46;14.27;;;9.45;;
61677;SDS011;47575;52.054;4.334;2022-09-23T14:36:14;13.13;;;9.55;;
61677;SDS011;47575;52.054;4.334;2022-09-23T14:39:02;16.80;;;10.75;;
61677;SDS011;47575;52.054;4.334;2022-09-23T14:41:32;16.17;;;10.73;;
61677;SDS011;47575;52.054;4.334;2022-09-23T14:44:03;14.68;;;9.90;;
61677;SDS011;47575;52.054;4.334;2022-09-23T14:46:33;12.15;;;10.73;;
61677;SDS011;47575;52.054;4.334;2022-09-23T14:49:05;13.93;;;10.88;;
61677;SDS011;47575;52.054;4.334;2022-09-23T14:51:44;16.05;;;11.50;;
61677;SDS011;47575;52.054;4.334;2022-09-23T14:56:55;17.23;;;12.82;;
61677;SDS011;47575;52.054;4.334;2022-09-23T14:59:23;18.00;;;13.18;;
61677;SDS011;47575;52.054;4.334;2022-09-23T15:01:53;18.45;;;13.85;;
61677;SDS011;47575;52.054;4.334;2022-09-23T15:04:29;19.17;;;14.68;;
61677;SDS011;47575;52.054;4.334;2022-09-23T15:07:01;23.27;;;16.00;;
61677;SDS011;47575;52.054;4.334;2022-09-23T15:09:32;23.25;;;17.05;;
61677;SDS011;47575;52.054;4.334;2022-09-23T15:12:04;22.92;;;16.95;;
61677;SDS011;47575;52.054;4.334;2022-09-23T15:14:34;25.05;;;20.02;;
61677;SDS011;47575;52.054;4.334;2022-09-23T15:17:05;27.38;;;21.05;;
61677;SDS011;47575;52.054;4.334;2022-09-23T15:19:40;27.08;;;22.45;;
61677;SDS011;47575;52.054;4.334;2022-09-23T15:22:08;29.65;;;22.10;;
61677;SDS011;47575;52.054;4.334;2022-09-23T15:24:36;34.80;;;24.25;;
61677;SDS011;47575;52.054;4.334;2022-09-23T15:27:15;31.98;;;21.73;;